Time;durP1;ratioP1;P1;durP2;ratioP2;P2;SDS_P1;SDS_P2;PMS_P1;PMS_P2;Temp;Humidity;BMP_temperature;BMP_pressure;BME280_temperature;BME280_humidity;BME280_pressure;Samples;Min_cycle;Max_cycle;Signal;HPM_P1;HPM_P2
2022/05/22 00:04:38;;;;;;;15.00;6.40;;;;;11.60;101406.00;;;;10026557;29;20221;-77
2022/05/22 00:09:40;;;;;;;9.30;5.57;;;;;11.50;101407.00;;;;10016576;29;20225;-77
2022/05/22 00:14:42;;;;;;;10.13;5.50;;;;;11.40;101406.00;;;;10026601;29;20221;-77
2022/05/22 00:19:44;;;;;;;10.63;5.73;;;;;11.40;101415.00;;;;10004379;29;20198;-77
2022/05/22 00:24:46;;;;;;;9.57;6.10;;;;;11.20;101416.00;;;;10020311;29;20549;-77
2022/05/22 00:29:48;;;;;;;12.57;6.57;;;;;11.20;101410.00;;;;10011130;29;20209;-77
2022/05/22 00:34:50;;;;;;;15.43;6.97;;;;;11.10;101390.00;;;;10041624;29;20515;-77
2022/05/22 00:39:52;;;;;;;10.93;6.13;;;;;11.10;101380.00;;;;10027396;29;20201;-77
2022/05/22 00:44:54;;;;;;;17.70;7.13;;;;;11.10;101386.00;;;;10005566;29;20194;-77
2022/05/22 00:50:00;;;;;;;13.00;6.37;;;;;11.00;101374.00;;;;9973374;29;20255;-77
2022/05/22 00:55:16;;;;;;;13.43;7.00;;;;;10.90;101370.00;;;;10006934;29;20212;-77
2022/05/22 01:00:22;;;;;;;9.30;6.53;;;;;10.90;101378.00;;;;10025936;29;20240;-77
2022/05/22 01:05:29;;;;;;;14.47;8.13;;;;;10.80;101381.00;;;;10001912;29;20221;-77
2022/05/22 01:10:39;;;;;;;10.23;7.30;;;;;10.70;101369.00;;;;10010786;29;20209;-77
2022/05/22 01:15:41;;;;;;;13.17;6.97;;;;;10.60;101367.00;;;;10025349;29;20197;-77
2022/05/22 01:20:50;;;;;;;14.33;6.90;;;;;10.50;101350.00;;;;10063025;29;20740;-77
2022/05/22 01:25:55;;;;;;;11.60;7.87;;;;;10.40;101345.00;;;;10025573;29;20261;-77
2022/05/22 01:30:57;;;;;;;15.77;8.23;;;;;10.40;101343.00;;;;10032181;29;20213;-77
2022/05/22 01:36:04;;;;;;;14.27;7.63;;;;;10.40;101342.00;;;;10009083;29;20196;-77
2022/05/22 01:41:07;;;;;;;17.60;8.17;;;;;10.40;101337.00;;;;10023951;29;20327;-77
2022/05/22 01:46:14;;;;;;;15.33;8.17;;;;;10.30;101332.00;;;;10022724;29;20374;-77
2022/05/22 01:51:27;;;;;;;15.07;7.67;;;;;10.30;101336.00;;;;10022148;29;20212;-77
2022/05/22 01:56:30;;;;;;;11.17;7.73;;;;;10.20;101339.00;;;;10003313;29;20549;-77
2022/05/22 02:01:33;;;;;;;11.30;7.13;;;;;10.10;101327.00;;;;10023275;29;20260;-77
2022/05/22 02:08:19;;;;;;;10.13;7.83;;;;;10.10;101327.00;;;;10007432;29;20216;-77
2022/05/22 02:12:05;;;;;;;12.00;8.07;;;;;10.10;101309.00;;;;10008112;29;20224;-77
2022/05/22 02:17:08;;;;;;;14.70;8.27;;;;;10.10;101321.00;;;;10038259;29;20204;-77
2022/05/22 02:22:22;;;;;;;13.67;7.50;;;;;10.00;101318.00;;;;10038121;29;20201;-77
2022/05/22 02:27:24;;;;;;;13.23;8.10;;;;;9.90;101311.00;;;;9991021;29;20295;-77
2022/05/22 02:32:27;;;;;;;15.40;7.80;;;;;9.90;101303.00;;;;10031619;29;20311;-77
2022/05/22 02:37:29;;;;;;;13.13;7.87;;;;;9.90;101314.00;;;;10022811;29;20219;-77
2022/05/22 02:42:31;;;;;;;10.00;8.07;;;;;9.80;101297.00;;;;10009027;29;20229;-77
2022/05/22 02:47:35;;;;;;;12.50;7.13;;;;;9.80;101287.00;;;;9955061;29;20202;-77
2022/05/22 02:52:39;;;;;;;15.93;7.80;;;;;9.70;101283.00;;;;9999735;29;20217;-77
2022/05/22 02:57:41;;;;;;;20.43;8.13;;;;;9.70;101296.00;;;;9987924;29;20546;-77
2022/05/22 03:02:43;;;;;;;14.43;7.57;;;;;9.70;101290.00;;;;10029139;29;20260;-77
2022/05/22 03:07:46;;;;;;;12.90;7.93;;;;;9.60;101275.00;;;;10025870;29;20303;-77
2022/05/22 03:13:05;;;;;;;14.40;8.13;;;;;9.50;101272.00;;;;10029384;29;20320;-77
2022/05/22 03:18:10;;;;;;;12.90;8.30;;;;;9.50;101271.00;;;;10028603;29;20625;-77
2022/05/22 03:23:13;;;;;;;11.97;8.43;;;;;9.50;101264.00;;;;10043487;29;20196;-77
2022/05/22 03:28:17;;;;;;;12.27;8.17;;;;;9.50;101261.00;;;;10010985;29;20295;-77
2022/05/22 03:33:19;;;;;;;21.23;9.00;;;;;9.50;101265.00;;;;10021646;29;20718;-77
2022/05/22 03:38:27;;;;;;;13.43;8.80;;;;;9.50;101258.00;;;;10028723;29;20638;-76
2022/05/22 03:43:37;;;;;;;12.40;8.40;;;;;9.40;101265.00;;;;10027277;29;20280;-77
2022/05/22 03:48:45;;;;;;;13.17;8.30;;;;;9.40;101268.00;;;;9990860;29;20206;-77
2022/05/22 03:53:47;;;;;;;15.17;9.17;;;;;9.50;101275.00;;;;9974625;29;20221;-77
2022/05/22 03:58:59;;;;;;;14.10;8.67;;;;;9.50;101267.00;;;;9991623;29;20201;-77
2022/05/22 04:04:03;;;;;;;13.67;9.17;;;;;9.50;101265.00;;;;10042117;29;20313;-77
2022/05/22 04:09:05;;;;;;;12.33;9.27;;;;;9.70;101272.00;;;;10025900;29;20209;-76
2022/05/22 04:14:25;;;;;;;17.80;8.97;;;;;9.80;101261.00;;;;10042815;29;20220;-77
2022/05/22 04:19:41;;;;;;;12.07;7.83;;;;;9.90;101258.00;;;;10057191;29;20189;-77
2022/05/22 04:30:17;;;;;;;19.27;8.73;;;;;10.20;101252.00;;;;10014121;29;20232;-77
2022/05/22 04:35:23;;;;;;;15.67;8.43;;;;;10.40;101248.00;;;;10009584;29;20237;-77
2022/05/22 04:40:26;;;;;;;18.93;9.60;;;;;10.50;101250.00;;;;10026067;29;20201;-76
2022/05/22 04:45:28;;;;;;;12.10;8.37;;;;;10.70;101253.00;;;;10010036;29;20204;-77
2022/05/22 04:50:34;;;;;;;12.03;9.60;;;;;10.90;101255.00;;;;10017291;29;20197;-77
2022/05/22 04:56:01;;;;;;;15.83;9.70;;;;;11.20;101257.00;;;;10025553;29;20697;-77
2022/05/22 05:01:11;;;;;;;14.87;10.60;;;;;11.70;101256.00;;;;10025261;29;20229;-77
2022/05/22 05:06:22;;;;;;;16.03;11.37;;;;;12.00;101256.00;;;;10040213;29;20201;-77
2022/05/22 05:11:28;;;;;;;16.30;11.23;;;;;12.20;101247.00;;;;10040494;29;20209;-77
2022/05/22 05:16:42;;;;;;;17.30;10.00;;;;;12.60;101251.00;;;;10024193;29;20201;-77
2022/05/22 05:21:49;;;;;;;18.87;11.53;;;;;13.20;101255.00;;;;10062550;29;20193;-77
2022/05/22 05:26:54;;;;;;;14.70;10.53;;;;;13.60;101254.00;;;;10079975;29;20192;-77
2022/05/22 05:32:21;;;;;;;16.13;10.17;;;;;13.90;101254.00;;;;10045642;29;20221;-77
2022/05/22 05:37:23;;;;;;;16.40;10.93;;;;;14.20;101249.00;;;;10012101;29;20197;-77
2022/05/22 05:42:36;;;;;;;11.53;9.07;;;;;14.30;101255.00;;;;10012526;29;20201;-77
2022/05/22 05:47:39;;;;;;;12.13;9.53;;;;;14.70;101245.00;;;;10042356;29;20268;-77
2022/05/22 05:53:07;;;;;;;16.60;10.07;;;;;15.20;101251.00;;;;9985318;29;20280;-77
2022/05/22 05:58:17;;;;;;;13.60;9.10;;;;;16.00;101246.00;;;;10005888;29;20190;-77
2022/05/22 06:03:53;;;;;;;12.27;8.17;;;;;16.80;101248.00;;;;9989387;29;20261;-78
2022/05/22 06:08:56;;;;;;;11.47;7.40;;;;;17.60;101245.00;;;;10037668;29;20205;-78
2022/05/22 06:14:21;;;;;;;12.07;6.93;;;;;18.40;101248.00;;;;10026681;29;20223;-78
2022/05/22 06:24:49;;;;;;;9.60;5.50;;;;;19.10;101245.00;;;;10004609;29;20194;-78
2022/05/22 06:30:15;;;;;;;11.02;5.30;;;;;19.50;101244.00;;;;9986287;29;20212;-78
2022/05/22 06:35:39;;;;;;;11.27;6.00;;;;;19.90;101244.00;;;;10035249;29;20227;-77
2022/05/22 06:41:06;;;;;;;14.10;5.75;;;;;20.50;101230.00;;;;10050642;29;20209;-77
2022/05/22 06:46:37;;;;;;;8.50;4.82;;;;;20.90;101232.00;;;;10054363;29;20640;-77
2022/05/22 06:52:02;;;;;;;9.07;5.05;;;;;21.00;101226.00;;;;10046724;29;20666;-78
2022/05/22 06:57:28;;;;;;;8.60;5.45;;;;;21.20;101229.00;;;;9994649;29;20909;-78
2022/05/22 07:02:52;;;;;;;11.30;5.35;;;;;21.60;101225.00;;;;10051438;29;20628;-77
2022/05/22 07:08:32;;;;;;;12.25;5.10;;;;;22.00;101227.00;;;;10048684;29;20197;-77
2022/05/22 07:13:57;;;;;;;12.70;4.68;;;;;22.40;101215.00;;;;10031930;29;21026;-77
2022/05/22 07:19:06;;;;;;;12.82;5.13;;;;;22.50;101218.00;;;;10031084;29;20285;-78
2022/05/22 07:24:33;;;;;;;8.75;5.15;;;;;22.70;101211.00;;;;10023084;29;20248;-77
2022/05/22 07:29:53;;;;;;;11.65;4.90;;;;;22.90;101210.00;;;;10036374;29;20296;-77
2022/05/22 07:35:15;;;;;;;9.15;4.65;;;;;23.50;101206.00;;;;10063511;29;20692;-77
2022/05/22 07:40:26;;;;;;;8.95;4.20;;;;;23.80;101197.00;;;;10032478;29;20289;-77
2022/05/22 07:45:47;;;;;;;9.25;3.92;;;;;23.80;101207.00;;;;10045931;29;20568;-77
2022/05/22 07:51:06;;;;;;;10.98;4.10;;;;;24.00;101193.00;;;;10032735;29;20200;-77
2022/05/22 07:56:29;;;;;;;8.60;3.80;;;;;24.30;101194.00;;;;10017331;29;20244;-78
2022/05/22 08:01:40;;;;;;;8.88;4.15;;;;;24.60;101190.00;;;;10031998;29;20328;-78
2022/05/22 08:06:51;;;;;;;9.63;4.70;;;;;24.80;101167.00;;;;10060144;29;20261;-78
2022/05/22 08:12:04;;;;;;;10.23;4.82;;;;;25.00;101159.00;;;;10010752;29;20241;-78
2022/05/22 08:17:07;;;;;;;8.63;4.95;;;;;25.30;101161.00;;;;10058014;29;20193;-78
2022/05/22 08:22:09;;;;;;;9.63;4.78;;;;;25.60;101150.00;;;;10024504;29;20257;-78
2022/05/22 08:27:30;;;;;;;13.75;5.35;;;;;26.00;101138.00;;;;10008584;29;20210;-76
2022/05/22 08:32:36;;;;;;;8.70;4.25;;;;;26.10;101141.00;;;;10033297;29;20253;-77
2022/05/22 08:37:38;;;;;;;11.20;5.07;;;;;26.30;101136.00;;;;10028413;29;20211;-77
2022/05/22 08:42:53;;;;;;;11.27;5.03;;;;;26.60;101141.00;;;;10043212;29;20296;-77
2022/05/22 08:48:05;;;;;;;11.43;5.05;;;;;26.90;101136.00;;;;10030013;29;20265;-76
2022/05/22 08:53:34;;;;;;;13.20;5.55;;;;;26.70;101136.00;;;;10042820;29;20204;-78
2022/05/22 08:58:56;;;;;;;13.15;6.30;;;;;27.00;101125.00;;;;10027256;29;20658;-77
2022/05/22 09:04:05;;;;;;;9.95;5.35;;;;;27.50;101116.00;;;;10041828;29;20220;-77
2022/05/22 09:09:07;;;;;;;10.00;5.97;;;;;27.20;101117.00;;;;10042614;29;20209;-76
2022/05/22 09:14:19;;;;;;;10.82;5.22;;;;;27.30;101121.00;;;;10026986;29;20242;-77
2022/05/22 09:19:31;;;;;;;11.52;5.57;;;;;27.80;101127.00;;;;10038595;29;20197;-77
2022/05/22 09:24:49;;;;;;;11.88;5.40;;;;;27.90;101110.00;;;;10027306;29;20192;-77
2022/05/22 09:30:05;;;;;;;9.35;5.55;;;;;28.20;101091.00;;;;10031784;29;20254;-77
2022/05/22 09:35:38;;;;;;;10.18;4.80;;;;;27.90;101105.00;;;;9988131;29;20309;-78
2022/05/22 09:40:46;;;;;;;10.10;5.25;;;;;28.10;101100.00;;;;9973701;29;20202;-77
2022/05/22 09:46:21;;;;;;;8.50;4.90;;;;;27.90;101093.00;;;;10022408;29;20269;-77
2022/05/22 09:51:51;;;;;;;7.60;5.05;;;;;27.90;101086.00;;;;10041439;29;20318;-78
2022/05/22 09:57:00;;;;;;;9.98;4.90;;;;;28.20;101075.00;;;;10025723;29;20211;-77
2022/05/22 10:02:18;;;;;;;8.75;4.18;;;;;28.50;101072.00;;;;10025396;29;20275;-77
2022/05/22 10:07:59;;;;;;;4.47;2.42;;;;;29.00;101060.00;;;;10025094;29;20204;-77
2022/05/22 10:13:19;;;;;;;5.40;3.70;;;;;29.40;101047.00;;;;9975566;29;20268;-77
2022/05/22 10:19:02;;;;;;;8.85;4.22;;;;;29.40;101035.00;;;;10063686;29;20200;-77
2022/05/22 10:24:15;;;;;;;7.03;3.40;;;;;29.80;101022.00;;;;9918351;29;20751;-77
2022/05/22 10:29:30;;;;;;;7.18;2.95;;;;;30.30;101019.00;;;;10019226;29;20202;-76
2022/05/22 10:34:59;;;;;;;8.63;3.15;;;;;30.40;101010.00;;;;10038991;29;20683;-76
2022/05/22 10:40:08;;;;;;;4.70;2.67;;;;;30.70;101016.00;;;;10024418;29;20208;-77
2022/05/22 10:45:34;;;;;;;5.90;2.60;;;;;30.80;101008.00;;;;9994906;29;20197;-77
2022/05/22 10:50:36;;;;;;;5.30;2.55;;;;;30.60;100990.00;;;;10025519;29;20544;-77
2022/05/22 10:55:44;;;;;;;8.73;2.80;;;;;30.60;100972.00;;;;10008973;29;20261;-78
2022/05/22 11:00:55;;;;;;;7.00;2.75;;;;;29.90;100971.00;;;;10038583;29;20205;-77
2022/05/22 11:05:59;;;;;;;7.03;2.88;;;;;29.70;100966.00;;;;10038887;29;20198;-77
2022/05/22 11:11:16;;;;;;;7.05;2.50;;;;;29.90;100953.00;;;;10008800;29;20201;-77
2022/05/22 11:16:29;;;;;;;7.95;3.13;;;;;29.80;100938.00;;;;9995982;29;20737;-77
2022/05/22 11:22:00;;;;;;;8.02;2.80;;;;;30.00;100934.00;;;;10045609;29;20208;-77
2022/05/22 11:27:28;;;;;;;3.83;2.25;;;;;30.50;100928.00;;;;10019013;29;20202;-77
2022/05/22 11:32:55;;;;;;;9.85;3.13;;;;;30.90;100922.00;;;;10051581;29;20217;-77
2022/05/22 11:38:00;;;;;;;6.63;2.53;;;;;31.10;100907.00;;;;10046346;29;20177;-77
2022/05/22 11:43:11;;;;;;;4.95;2.50;;;;;31.00;100907.00;;;;10029024;29;20661;-77
2022/05/22 11:48:47;;;;;;;6.38;3.03;;;;;30.70;100893.00;;;;10029827;29;20229;-77
2022/05/22 11:53:55;;;;;;;7.15;2.88;;;;;30.60;100886.00;;;;10017273;29;20217;-77
2022/05/22 11:59:18;;;;;;;5.78;2.50;;;;;30.70;100875.00;;;;9978302;29;20197;-77
2022/05/22 12:05:00;;;;;;;5.63;2.35;;;;;30.80;100858.00;;;;10008530;29;20224;-77
2022/05/22 12:10:16;;;;;;;4.93;2.10;;;;;30.70;100853.00;;;;10056288;29;20204;-78
2022/05/22 12:15:46;;;;;;;3.63;1.80;;;;;31.00;100846.00;;;;9995352;29;20221;-77
2022/05/22 12:21:12;;;;;;;3.90;1.92;;;;;30.90;100845.00;;;;9977646;29;20313;-77
2022/05/22 12:26:18;;;;;;;2.83;1.90;;;;;30.50;100837.00;;;;10007375;29;20198;-78
2022/05/22 12:31:44;;;;;;;2.90;1.83;;;;;30.00;100847.00;;;;10046997;29;20201;-78
2022/05/22 12:36:50;;;;;;;6.35;2.03;;;;;30.40;100835.00;;;;10029833;29;20228;-77
2022/05/22 12:42:08;;;;;;;4.35;1.67;;;;;30.90;100831.00;;;;10030629;29;20261;-78
2022/05/22 12:47:13;;;;;;;6.45;2.63;;;;;30.40;100823.00;;;;10013640;29;20271;-78
2022/05/22 12:52:39;;;;;;;8.88;2.65;;;;;30.10;100814.00;;;;10015356;29;20207;-78
2022/05/22 12:57:51;;;;;;;6.53;2.33;;;;;30.00;100819.00;;;;10060835;29;20214;-77
2022/05/22 13:03:11;;;;;;;5.10;2.70;;;;;29.60;100816.00;;;;10014302;29;20769;-77
2022/05/22 13:08:24;;;;;;;4.57;2.28;;;;;29.60;100802.00;;;;10028793;29;20783;-77
2022/05/22 13:13:31;;;;;;;5.90;2.50;;;;;30.20;100803.00;;;;10047995;29;20272;-78
2022/05/22 13:18:49;;;;;;;7.32;2.67;;;;;30.10;100812.00;;;;10059149;29;20560;-78
2022/05/22 13:24:01;;;;;;;3.65;2.38;;;;;30.20;100804.00;;;;10052422;29;20200;-78
2022/05/22 13:29:25;;;;;;;5.32;2.30;;;;;31.20;100803.00;;;;10022042;29;20259;-78
2022/05/22 13:34:37;;;;;;;4.10;1.90;;;;;32.20;100799.00;;;;10034299;29;20319;-78
2022/05/22 13:40:07;;;;;;;3.90;1.90;;;;;32.30;100790.00;;;;10043261;29;20197;-78
2022/05/22 13:45:47;;;;;;;2.97;2.00;;;;;33.80;100767.00;;;;10045008;29;20204;-78
2022/05/22 13:56:35;;;;;;;6.35;2.20;;;;;36.50;100760.00;;;;10060702;29;20212;-77
2022/05/22 14:01:41;;;;;;;4.10;1.90;;;;;37.00;100754.00;;;;10030854;29;20762;-78
2022/05/22 14:06:48;;;;;;;7.50;2.22;;;;;37.50;100743.00;;;;10020221;29;20212;-78
2022/05/22 14:11:53;;;;;;;4.75;2.00;;;;;37.50;100739.00;;;;10029598;29;20209;-77
2022/05/22 14:17:02;;;;;;;6.30;2.05;;;;;37.40;100739.00;;;;10014372;29;20216;-78
2022/05/22 14:22:22;;;;;;;5.45;2.70;;;;;36.50;100739.00;;;;10041500;29;20270;-78
2022/05/22 14:27:30;;;;;;;3.67;1.55;;;;;35.70;100716.00;;;;10026671;29;20716;-78
2022/05/22 14:32:31;;;;;;;4.93;1.98;;;;;36.70;100700.00;;;;10034275;29;20197;-78
2022/05/22 14:37:38;;;;;;;5.88;2.33;;;;;35.10;100701.00;;;;10022368;29;20649;-77
2022/05/22 14:42:40;;;;;;;8.15;2.20;;;;;35.60;100675.00;;;;10012568;29;20239;-77
2022/05/22 14:47:42;;;;;;;4.50;2.28;;;;;36.50;100677.00;;;;10028064;29;20292;-76
2022/05/22 14:52:56;;;;;;;8.85;2.20;;;;;36.80;100662.00;;;;10011891;29;20257;-77
2022/05/22 14:58:40;;;;;;;5.30;2.30;;;;;36.90;100658.00;;;;10034538;29;20271;-78
2022/05/22 15:03:49;;;;;;;5.72;2.00;;;;;36.30;100643.00;;;;10033041;29;20240;-77
2022/05/22 15:09:03;;;;;;;6.38;2.58;;;;;36.50;100641.00;;;;10007359;29;20201;-76
2022/05/22 15:14:18;;;;;;;4.07;2.17;;;;;35.40;100630.00;;;;10035742;29;20217;-77
2022/05/22 15:19:53;;;;;;;4.18;2.00;;;;;36.70;100624.00;;;;10048879;29;20288;-77
2022/05/22 15:30:16;;;;;;;7.30;1.90;;;;;35.30;100624.00;;;;10043119;29;20201;-79
2022/05/22 15:35:22;;;;;;;5.32;1.98;;;;;34.70;100624.00;;;;10039782;29;20219;-79
2022/05/22 15:40:24;;;;;;;5.50;2.05;;;;;31.40;100617.00;;;;10031653;29;20229;-78
2022/05/22 15:45:26;;;;;;;5.20;2.30;;;;;29.40;100608.00;;;;10047006;29;20201;-79
2022/05/22 15:50:47;;;;;;;4.78;1.90;;;;;28.50;100617.00;;;;10049599;29;20197;-79
2022/05/22 15:55:49;;;;;;;5.78;2.35;;;;;28.10;100605.00;;;;10031021;29;20585;-79
2022/05/22 16:00:51;;;;;;;4.88;2.25;;;;;27.10;100595.00;;;;10017886;29;20212;-79
2022/05/22 16:05:53;;;;;;;5.32;2.15;;;;;26.60;100594.00;;;;10003524;29;20289;-79
2022/05/22 16:10:55;;;;;;;8.07;2.28;;;;;26.30;100594.00;;;;10011167;29;20202;-79
2022/05/22 16:15:57;;;;;;;3.40;1.85;;;;;26.80;100578.00;;;;10048028;29;20817;-79
2022/05/22 16:21:01;;;;;;;6.13;2.33;;;;;26.30;100569.00;;;;10036322;29;20194;-80
2022/05/22 16:26:06;;;;;;;4.90;2.30;;;;;25.80;100566.00;;;;10011235;29;20216;-79
2022/05/22 16:31:13;;;;;;;4.80;2.22;;;;;26.00;100570.00;;;;10033449;29;20208;-79
2022/05/22 16:36:15;;;;;;;3.10;1.88;;;;;26.20;100555.00;;;;10046208;29;20209;-79
2022/05/22 16:41:18;;;;;;;3.88;2.00;;;;;26.30;100548.00;;;;10032242;29;20205;-79
2022/05/22 16:46:47;;;;;;;4.35;1.90;;;;;26.30;100547.00;;;;10003180;29;20602;-79
2022/05/22 16:57:10;;;;;;;6.53;1.80;;;;;26.10;100535.00;;;;9995835;29;20244;-79
2022/05/22 17:02:12;;;;;;;4.05;2.13;;;;;26.00;100533.00;;;;10030099;29;20244;-78
2022/05/22 17:07:26;;;;;;;5.68;2.03;;;;;25.80;100542.00;;;;10018773;29;20205;-77
2022/05/22 17:12:30;;;;;;;5.05;2.38;;;;;25.60;100531.00;;;;10033316;29;20212;-78
2022/05/22 17:17:32;;;;;;;3.75;2.03;;;;;25.30;100536.00;;;;10047361;29;20248;-79
2022/05/22 17:22:35;;;;;;;4.22;2.10;;;;;25.20;100519.00;;;;10008126;29;20205;-78
2022/05/22 17:27:54;;;;;;;4.88;2.08;;;;;25.20;100512.00;;;;9995773;29;20216;-79
2022/05/22 17:32:58;;;;;;;5.80;2.10;;;;;24.70;100503.00;;;;10064577;29;20594;-79
2022/05/22 17:38:08;;;;;;;3.10;2.00;;;;;24.40;100509.00;;;;10011197;29;20197;-78
2022/05/22 17:43:11;;;;;;;3.95;1.80;;;;;24.50;100498.00;;;;10039391;29;20236;-78
2022/05/22 17:48:18;;;;;;;9.27;1.95;;;;;24.70;100493.00;;;;10013613;29;20209;-77
2022/05/22 17:53:22;;;;;;;5.18;1.70;;;;;24.50;100486.00;;;;10042556;29;20208;-78
2022/05/22 17:58:25;;;;;;;3.90;1.75;;;;;24.30;100480.00;;;;10046694;29;20656;-78
2022/05/22 18:03:26;;;;;;;4.63;2.17;;;;;24.00;100482.00;;;;10046847;29;20685;-78
2022/05/22 18:08:31;;;;;;;4.20;1.90;;;;;23.80;100486.00;;;;10046437;29;20497;-79
2022/05/22 18:18:54;;;;;;;3.25;1.95;;;;;23.10;100479.00;;;;10063769;29;20211;-77
2022/05/22 18:29:48;;;;;;;4.47;1.98;;;;;22.60;100492.00;;;;10051041;29;20216;-78
2022/05/22 18:34:51;;;;;;;4.50;2.08;;;;;22.30;100476.00;;;;10071185;29;20592;-79
2022/05/22 18:39:54;;;;;;;3.38;1.60;;;;;22.10;100475.00;;;;10017619;29;20208;-79
2022/05/22 18:44:56;;;;;;;3.85;1.92;;;;;21.90;100467.00;;;;10033327;29;20542;-79
2022/05/22 18:49:57;;;;;;;4.80;1.77;;;;;21.70;100472.00;;;;10026038;29;20252;-79
2022/05/22 18:55:01;;;;;;;5.03;2.25;;;;;21.60;100468.00;;;;10037437;29;20643;-78
2022/05/22 19:00:05;;;;;;;4.25;2.10;;;;;21.40;100470.00;;;;10036159;29;20261;-79
2022/05/22 19:05:07;;;;;;;2.38;1.52;;;;;21.20;100466.00;;;;10035623;29;20233;-79
2022/05/22 19:10:11;;;;;;;2.58;1.88;;;;;21.10;100474.00;;;;10013298;29;20542;-79
2022/05/22 19:15:16;;;;;;;2.95;2.03;;;;;20.80;100467.00;;;;10053851;29;20213;-78
2022/05/22 19:20:19;;;;;;;5.00;1.83;;;;;20.50;100464.00;;;;10063143;29;20208;-78
2022/05/22 19:25:20;;;;;;;3.45;1.60;;;;;20.30;100458.00;;;;10019544;29;20302;-78
2022/05/22 19:30:25;;;;;;;4.55;2.00;;;;;20.10;100460.00;;;;10020589;29;20193;-77
2022/05/22 19:35:29;;;;;;;8.18;1.80;;;;;20.00;100458.00;;;;10036799;29;20221;-79
2022/05/22 19:40:36;;;;;;;6.88;2.08;;;;;19.90;100448.00;;;;10037223;29;20280;-77
2022/05/22 19:45:39;;;;;;;5.05;2.25;;;;;19.90;100453.00;;;;10020359;29;20189;-78
2022/05/22 19:50:42;;;;;;;3.63;1.95;;;;;19.80;100456.00;;;;10029165;29;20595;-78
2022/05/22 20:01:17;;;;;;;2.60;1.77;;;;;19.80;100453.00;;;;10020795;29;20300;-77
2022/05/22 20:06:21;;;;;;;4.18;1.92;;;;;19.70;100443.00;;;;10051161;29;20208;-77
2022/05/22 20:11:29;;;;;;;3.38;1.77;;;;;19.60;100430.00;;;;10051736;29;20759;-77
2022/05/22 20:16:36;;;;;;;5.30;1.92;;;;;19.60;100433.00;;;;9996804;29;20222;-77
2022/05/22 20:21:38;;;;;;;2.33;1.80;;;;;19.50;100428.00;;;;10033972;29;20542;-78
2022/05/22 20:26:41;;;;;;;4.97;2.38;;;;;19.50;100415.00;;;;10072792;29;20252;-78
2022/05/22 20:31:43;;;;;;;5.40;2.35;;;;;19.50;100410.00;;;;10074963;29;20204;-78
2022/05/22 20:36:47;;;;;;;5.85;1.98;;;;;19.40;100409.00;;;;10034614;29;20614;-77
2022/05/22 20:41:49;;;;;;;4.32;2.40;;;;;19.40;100407.00;;;;10033247;29;20213;-78
2022/05/22 20:46:53;;;;;;;5.80;2.60;;;;;19.20;100392.00;;;;10009528;29;20274;-78
2022/05/22 20:51:55;;;;;;;4.28;2.03;;;;;19.10;100376.00;;;;10012614;29;20711;-78
2022/05/22 20:57:00;;;;;;;6.18;2.17;;;;;19.10;100380.00;;;;10033281;29;20303;-78
2022/05/22 21:02:05;;;;;;;4.40;2.17;;;;;19.10;100388.00;;;;10014415;29;20228;-77
2022/05/22 21:07:18;;;;;;;4.70;1.80;;;;;19.10;100378.00;;;;10031388;29;20201;-78
2022/05/22 21:12:20;;;;;;;6.00;1.98;;;;;19.20;100386.00;;;;10052363;29;20200;-77
2022/05/22 21:17:22;;;;;;;5.07;2.30;;;;;19.20;100383.00;;;;10064661;29;20272;-78
2022/05/22 21:22:24;;;;;;;3.80;2.05;;;;;19.20;100377.00;;;;10032232;29;20201;-78
2022/05/22 21:32:47;;;;;;;6.78;2.50;;;;;19.10;100386.00;;;;10053826;29;20211;-78
2022/05/22 21:37:49;;;;;;;9.07;2.50;;;;;19.10;100386.00;;;;10015509;29;20225;-77
2022/05/22 21:42:52;;;;;;;2.92;2.28;;;;;19.00;100372.00;;;;10045379;29;20351;-78
2022/05/22 21:47:54;;;;;;;5.82;2.90;;;;;18.80;100352.00;;;;10015259;29;20193;-78
2022/05/22 21:52:56;;;;;;;5.82;2.40;;;;;18.70;100350.00;;;;10046046;29;20560;-78
2022/05/22 21:58:00;;;;;;;4.53;2.40;;;;;18.60;100337.00;;;;10014215;29;20236;-78
2022/05/22 22:03:03;;;;;;;5.47;2.92;;;;;18.60;100340.00;;;;10030132;29;20229;-77
2022/05/22 22:08:05;;;;;;;4.53;2.83;;;;;18.60;100335.00;;;;10020842;29;20287;-78
2022/05/22 22:13:07;;;;;;;8.18;3.13;;;;;18.60;100316.00;;;;10019570;29;20285;-78
2022/05/22 22:18:10;;;;;;;4.82;3.15;;;;;18.60;100307.00;;;;10028626;29;20624;-78
2022/05/22 22:23:12;;;;;;;5.07;3.17;;;;;18.60;100303.00;;;;10029867;29;20240;-78
2022/05/22 22:28:14;;;;;;;4.20;3.13;;;;;18.50;100303.00;;;;10032925;29;20242;-78
2022/05/22 22:33:17;;;;;;;5.10;3.28;;;;;18.50;100304.00;;;;10035636;29;20194;-78
2022/05/22 22:38:19;;;;;;;5.75;3.22;;;;;18.40;100289.00;;;;9992895;29;20218;-77
2022/05/22 22:43:25;;;;;;;5.32;3.42;;;;;18.40;100279.00;;;;10007612;29;20201;-78
2022/05/22 22:48:27;;;;;;;7.72;3.65;;;;;18.30;100261.00;;;;9995660;29;20201;-78
2022/05/22 22:58:50;;;;;;;5.63;3.50;;;;;18.20;100268.00;;;;10046091;29;20980;-77
2022/05/22 23:03:52;;;;;;;4.05;3.03;;;;;18.20;100266.00;;;;10044686;29;20233;-78
2022/05/22 23:08:54;;;;;;;5.05;4.05;;;;;18.20;100251.00;;;;10030479;29;20261;-77
2022/05/22 23:13:58;;;;;;;5.57;3.20;;;;;18.20;100244.00;;;;10033225;29;20209;-77
2022/05/22 23:19:02;;;;;;;4.95;3.22;;;;;18.10;100233.00;;;;10043190;29;20197;-77
2022/05/22 23:24:05;;;;;;;5.90;3.78;;;;;18.00;100219.00;;;;9998365;29;20573;-78
2022/05/22 23:29:09;;;;;;;7.65;3.83;;;;;17.80;100215.00;;;;10040155;29;20260;-78
2022/05/22 23:34:10;;;;;;;6.25;3.78;;;;;17.70;100199.00;;;;10074590;29;20711;-78
2022/05/22 23:39:15;;;;;;;5.93;3.40;;;;;17.50;100180.00;;;;10036277;29;20651;-78
2022/05/22 23:44:19;;;;;;;6.32;3.45;;;;;17.40;100188.00;;;;10035142;29;20211;-78
2022/05/22 23:49:22;;;;;;;6.15;3.58;;;;;17.30;100188.00;;;;10021093;29;20202;-78
2022/05/22 23:54:33;;;;;;;5.68;3.85;;;;;17.20;100187.00;;;;10035843;29;20213;-78
2022/05/22 23:59:36;;;;;;;8.07;3.80;;;;;17.10;100186.00;;;;10036650;29;20220;-78
